Time;durP1;ratioP1;P1;durP2;ratioP2;P2;SDS_P1;SDS_P2;PMS_P1;PMS_P2;Temp;Humidity;BMP_temperature;BMP_pressure;BME280_temperature;BME280_humidity;BME280_pressure;Samples;Min_cycle;Max_cycle;Signal;HPM_P1;HPM_P2
2022/10/31 00:02:02;;;;;;;4.72;3.25;;;;;;;19.51;60.04;101561.84;5052659;28;20028;-47
2022/10/31 00:04:27;;;;;;;4.38;3.38;;;;;;;19.50;60.01;101568.91;5048028;28;20469;-48
2022/10/31 00:06:52;;;;;;;4.72;3.28;;;;;;;19.50;60.04;101568.91;5044423;28;20660;-47
2022/10/31 00:09:18;;;;;;;5.22;3.35;;;;;;;19.50;60.02;101568.03;5050312;28;20541;-47
2022/10/31 00:11:43;;;;;;;4.90;3.03;;;;;;;19.51;60.04;101575.03;5046959;28;20500;-46
2022/10/31 00:14:08;;;;;;;5.38;2.45;;;;;;;19.50;59.96;101581.22;5046869;28;20036;-48
2022/10/31 00:16:34;;;;;;;4.78;3.53;;;;;;;19.50;60.15;101575.94;5045531;28;20065;-48
2022/10/31 00:19:01;;;;;;;4.28;2.63;;;;;;;19.50;60.07;101589.13;5046358;28;20053;-47
2022/10/31 00:21:27;;;;;;;4.72;3.25;;;;;;;19.50;60.05;101589.97;5051434;28;20126;-47
2022/10/31 00:23:53;;;;;;;5.32;3.53;;;;;;;19.48;60.16;101591.84;5049785;28;20730;-46
2022/10/31 00:26:19;;;;;;;4.38;2.95;;;;;;;19.49;59.99;101590.06;5047861;28;20040;-48
2022/10/31 00:28:44;;;;;;;5.97;3.10;;;;;;;19.48;60.02;101588.34;5048009;28;20025;-48
2022/10/31 00:31:11;;;;;;;4.85;3.22;;;;;;;19.49;59.91;101582.16;5049310;28;20614;-47
2022/10/31 00:33:38;;;;;;;6.25;3.47;;;;;;;19.49;59.97;101582.97;5047244;28;20039;-47
2022/10/31 00:36:05;;;;;;;5.75;3.22;;;;;;;19.48;59.95;101569.88;5048620;28;20055;-47
2022/10/31 00:38:31;;;;;;;6.43;3.63;;;;;;;19.48;59.92;101577.78;5043301;28;20143;-47
2022/10/31 00:40:57;;;;;;;4.93;3.25;;;;;;;19.47;59.86;101584.84;5049005;28;20193;-48
2022/10/31 00:43:22;;;;;;;3.90;3.03;;;;;;;19.49;59.89;101587.44;5043181;28;20037;-47
2022/10/31 00:45:47;;;;;;;6.43;3.45;;;;;;;19.49;59.83;101595.34;5048271;28;20049;-51
2022/10/31 00:48:13;;;;;;;5.85;3.75;;;;;;;19.48;59.98;101602.38;5044839;28;20545;-48
2022/10/31 00:50:39;;;;;;;4.97;3.30;;;;;;;19.48;59.90;101604.16;5043679;28;20044;-46
2022/10/31 00:53:04;;;;;;;5.32;3.63;;;;;;;19.48;60.29;101612.06;5046802;28;20304;-48
2022/10/31 00:55:30;;;;;;;4.32;3.10;;;;;;;19.48;59.54;101606.78;5047155;28;20064;-47
2022/10/31 00:57:55;;;;;;;6.18;3.28;;;;;;;19.48;59.96;101598.88;5044908;28;20053;-47
2022/10/31 01:00:21;;;;;;;4.82;3.00;;;;;;;19.48;59.92;101606.78;5048465;28;20036;-49
2022/10/31 01:02:46;;;;;;;5.65;3.10;;;;;;;19.48;59.86;101590.97;5045727;28;20037;-48
2022/10/31 01:05:12;;;;;;;3.47;2.90;;;;;;;19.47;59.71;101584.84;5047414;28;20047;-48
2022/10/31 01:07:38;;;;;;;4.95;2.90;;;;;;;19.47;59.83;101581.34;5048880;28;20166;-47
2022/10/31 01:10:05;;;;;;;4.72;3.33;;;;;;;19.48;59.87;101568.13;5044760;28;20051;-48
2022/10/31 01:12:36;;;;;;;4.25;3.25;;;;;;;19.47;59.88;101560.25;5043627;28;20124;-47
2022/10/31 01:15:02;;;;;;;5.10;3.15;;;;;;;19.48;59.69;101564.63;5043216;28;20120;-48
2022/10/31 01:17:27;;;;;;;5.97;3.33;;;;;;;19.45;59.86;101560.34;5046191;28;20493;-47
2022/10/31 01:19:53;;;;;;;4.50;3.25;;;;;;;19.47;59.80;101566.41;5045254;28;20029;-48
2022/10/31 01:22:18;;;;;;;6.43;3.45;;;;;;;19.47;59.89;101568.16;5046175;28;20041;-48
2022/10/31 01:24:43;;;;;;;4.35;2.95;;;;;;;19.46;59.73;101567.31;5043899;28;20581;-46
2022/10/31 01:27:09;;;;;;;5.03;3.15;;;;;;;19.47;59.96;101566.41;5043071;28;20094;-47
2022/10/31 01:29:34;;;;;;;3.85;3.10;;;;;;;19.46;59.91;101559.41;5045027;28;20032;-47
2022/10/31 01:31:59;;;;;;;5.13;3.67;;;;;;;19.46;59.78;101554.13;5046212;28;20025;-48
2022/10/31 01:34:25;;;;;;;5.28;3.15;;;;;;;19.47;59.83;101557.63;5045174;28;20029;-47
2022/10/31 01:36:51;;;;;;;4.55;2.83;;;;;;;19.45;60.06;101560.34;5050747;28;20801;-49
2022/10/31 01:39:17;;;;;;;4.15;2.92;;;;;;;19.46;59.91;101555.94;5045455;28;20045;-47
2022/10/31 01:41:51;;;;;;;4.53;2.80;;;;;;;19.47;59.83;101557.63;5042795;28;21207;-47
2022/10/31 01:44:17;;;;;;;7.30;3.30;;;;;;;19.46;59.79;101558.56;5044400;28;20531;-46
2022/10/31 01:47:05;;;;;;;4.97;3.10;;;;;;;19.46;59.63;101555.94;5046389;28;20041;-46
2022/10/31 01:49:53;;;;;;;4.50;3.30;;;;;;;19.46;59.73;101555.94;5045366;28;20056;-47
2022/10/31 01:52:22;;;;;;;4.20;3.10;;;;;;;19.45;59.71;101548.94;5044157;28;20041;-46
2022/10/31 01:54:53;;;;;;;5.30;3.15;;;;;;;19.45;59.87;101547.19;5046507;28;20075;-48
2022/10/31 01:57:21;;;;;;;6.82;3.47;;;;;;;19.45;59.71;101535.78;5051477;28;20043;-46
2022/10/31 01:59:51;;;;;;;8.88;3.72;;;;;;;19.45;59.64;101539.28;5050485;28;20033;-47
2022/10/31 02:02:18;;;;;;;4.95;3.22;;;;;;;19.45;59.64;101535.78;5050009;28;20477;-46
2022/10/31 02:04:45;;;;;;;4.85;3.63;;;;;;;19.45;59.57;101541.03;5051685;28;20647;-48
2022/10/31 02:07:15;;;;;;;4.15;3.25;;;;;;;19.45;59.54;101539.28;5045594;28;20064;-48
2022/10/31 02:09:43;;;;;;;4.75;3.17;;;;;;;19.46;59.55;101543.59;5048457;28;20040;-48
2022/10/31 02:12:10;;;;;;;5.05;3.10;;;;;;;19.45;59.62;101541.91;5051847;28;20036;-47
2022/10/31 02:14:37;;;;;;;4.90;2.92;;;;;;;19.45;59.67;101546.31;5055678;28;20086;-48
2022/10/31 02:17:02;;;;;;;4.90;3.15;;;;;;;19.44;59.70;101550.72;5047511;28;20076;-49
2022/10/31 02:19:52;;;;;;;5.07;3.28;;;;;;;19.44;59.57;101550.72;5045237;28;20552;-52
2022/10/31 02:22:41;;;;;;;4.45;2.97;;;;;;;19.45;59.59;101548.94;5048580;28;20563;-51
2022/10/31 02:25:06;;;;;;;6.00;2.95;;;;;;;19.44;59.54;101549.84;5047098;28;20157;-48
2022/10/31 02:27:43;;;;;;;5.15;3.20;;;;;;;19.44;59.64;101552.50;5049452;28;20393;-47
2022/10/31 02:30:18;;;;;;;4.82;3.03;;;;;;;19.44;59.60;101552.50;5054352;28;20041;-47
2022/10/31 02:32:59;;;;;;;;;;;;;;;19.43;59.57;101556.91;5051017;28;20124;-48
2022/10/31 02:35:33;;;;;;;3.92;3.15;;;;;;;19.43;59.66;101554.28;5048642;28;19935;-47
2022/10/31 02:38:31;;;;;;;3.92;3.35;;;;;;;19.42;59.66;101547.31;5043836;28;20025;-48
2022/10/31 02:41:01;;;;;;;5.25;3.35;;;;;;;19.44;59.71;101549.84;5049748;28;20127;-48
2022/10/31 02:43:42;;;;;;;4.03;3.08;;;;;;;19.43;59.65;101549.00;5050468;28;20037;-49
2022/10/31 02:46:14;;;;;;;3.75;2.92;;;;;;;19.43;59.40;101551.63;5051052;28;20040;-48
2022/10/31 02:48:42;;;;;;;5.20;3.45;;;;;;;19.43;59.51;101551.63;5044744;28;20050;-48
2022/10/31 02:51:09;;;;;;;4.53;3.05;;;;;;;19.43;59.60;101549.00;5042947;28;20060;-48
2022/10/31 02:53:35;;;;;;;4.13;3.13;;;;;;;19.42;59.66;101552.59;5047838;28;20021;-48
2022/10/31 02:56:17;;;;;;;4.93;3.00;;;;;;;19.42;59.58;101557.84;5050150;28;20035;-48
2022/10/31 02:58:47;;;;;;;4.07;3.10;;;;;;;19.42;59.49;101559.63;5044899;28;20266;-48
2022/10/31 03:01:27;;;;;;;3.80;3.00;;;;;;;19.42;59.52;101560.50;5047749;28;20033;-46
2022/10/31 03:04:14;;;;;;;4.78;3.30;;;;;;;19.43;59.57;101561.34;5055403;28;20612;-46
2022/10/31 03:06:45;;;;;;;3.83;3.05;;;;;;;19.42;59.50;101560.50;5053383;28;20535;-47
2022/10/31 03:09:33;;;;;;;6.78;3.70;;;;;;;19.43;59.67;101561.34;5049800;28;20616;-46
2022/10/31 03:12:08;;;;;;;5.40;3.42;;;;;;;19.42;59.46;101559.63;5048636;28;20045;-48
2022/10/31 03:14:33;;;;;;;3.70;3.00;;;;;;;19.43;59.33;101566.63;5050865;28;20052;-49
2022/10/31 03:17:04;;;;;;;3.58;2.90;;;;;;;19.42;59.41;101570.16;5050757;28;20067;-45
2022/10/31 03:19:34;;;;;;;4.60;2.75;;;;;;;19.42;59.42;101559.63;5050630;28;20040;-46
2022/10/31 03:22:22;;;;;;;3.67;2.72;;;;;;;19.41;59.50;101561.41;5054683;28;20068;-46
2022/10/31 03:24:51;;;;;;;4.10;3.13;;;;;;;19.41;59.17;101560.53;5057219;28;20047;-46
2022/10/31 03:27:21;;;;;;;4.60;3.38;;;;;;;19.40;59.63;101564.94;5051525;28;20037;-47
2022/10/31 03:29:49;;;;;;;4.55;2.65;;;;;;;19.41;59.52;101561.41;5049538;28;20040;-47
2022/10/31 03:32:21;;;;;;;4.57;3.25;;;;;;;19.42;59.32;101562.25;5051577;28;20051;-46
2022/10/31 03:34:49;;;;;;;4.85;2.90;;;;;;;19.41;59.35;101556.13;5050408;28;20093;-46
2022/10/31 03:37:19;;;;;;;4.05;3.05;;;;;;;19.42;59.44;101557.00;5053886;28;20063;-46
2022/10/31 03:39:47;;;;;;;4.95;3.08;;;;;;;19.40;59.63;101556.22;5047629;28;20063;-47
2022/10/31 03:42:21;;;;;;;4.28;3.20;;;;;;;19.41;59.42;101557.91;5048610;28;20128;-46
2022/10/31 03:44:55;;;;;;;4.78;3.30;;;;;;;19.41;59.31;101555.28;5050942;28;20124;-46
2022/10/31 03:47:21;;;;;;;5.45;3.08;;;;;;;19.40;59.44;101556.22;5049369;28;20485;-45
2022/10/31 03:49:47;;;;;;;4.18;3.00;;;;;;;19.41;59.52;101557.91;5049247;28;20060;-45
2022/10/31 03:52:15;;;;;;;4.50;3.30;;;;;;;19.41;59.29;101560.53;5052113;28;20109;-46
2022/10/31 03:54:44;;;;;;;3.55;2.78;;;;;;;19.39;59.43;101555.34;5053739;28;20454;-46
2022/10/31 03:57:12;;;;;;;3.78;2.80;;;;;;;19.40;59.30;101561.47;5055086;28;20040;-46
2022/10/31 03:59:47;;;;;;;4.45;3.00;;;;;;;19.39;59.26;101558.00;5051228;28;20032;-47
2022/10/31 04:02:16;;;;;;;4.30;3.22;;;;;;;19.39;59.36;101558.00;5049851;28;20075;-47
2022/10/31 04:04:44;;;;;;;4.95;3.30;;;;;;;19.39;59.42;101550.09;5046069;28;20147;-47
2022/10/31 04:07:11;;;;;;;4.85;3.00;;;;;;;19.38;59.36;101548.38;5055015;28;20171;-46
2022/10/31 04:09:40;;;;;;;4.32;2.67;;;;;;;19.38;59.38;101551.00;5050426;28;20044;-46
2022/10/31 04:12:08;;;;;;;3.63;3.08;;;;;;;19.39;59.44;101550.09;5054612;28;20040;-47
2022/10/31 04:14:37;;;;;;;3.90;3.22;;;;;;;19.38;59.38;101536.97;5042000;28;20056;-47
2022/10/31 04:17:07;;;;;;;4.88;3.28;;;;;;;19.39;59.31;101538.69;5050842;28;20039;-46
2022/10/31 04:19:33;;;;;;;4.65;2.95;;;;;;;19.39;59.30;101546.59;5045785;28;20578;-46
2022/10/31 04:21:58;;;;;;;4.07;3.08;;;;;;;19.39;59.27;101549.22;5047538;28;20046;-46
2022/10/31 04:24:24;;;;;;;5.20;3.20;;;;;;;19.40;59.32;101554.41;5048228;28;20044;-46
2022/10/31 04:26:49;;;;;;;3.90;3.13;;;;;;;19.38;59.42;101553.63;5046529;28;20156;-46
2022/10/31 04:29:14;;;;;;;4.10;3.15;;;;;;;19.37;59.21;101551.94;5048366;28;20063;-46
2022/10/31 04:31:40;;;;;;;6.32;3.05;;;;;;;19.37;59.30;101545.81;5049656;28;20037;-46
2022/10/31 04:34:07;;;;;;;4.72;3.15;;;;;;;19.39;59.45;101549.22;5046200;28;20139;-46
2022/10/31 04:36:32;;;;;;;4.00;3.20;;;;;;;19.38;59.27;101547.50;5044860;28;20060;-46
2022/10/31 04:38:58;;;;;;;4.78;3.20;;;;;;;19.38;59.43;101544.88;5047985;28;20124;-47
2022/10/31 04:41:23;;;;;;;4.97;2.95;;;;;;;19.37;59.38;101546.69;5048554;28;20150;-44
2022/10/31 04:43:48;;;;;;;4.07;2.85;;;;;;;19.38;59.30;101534.31;5048097;28;20040;-47
2022/10/31 04:46:14;;;;;;;5.15;2.92;;;;;;;19.38;59.31;101547.50;5047202;28;20793;-47
2022/10/31 04:48:39;;;;;;;4.35;3.05;;;;;;;19.37;59.31;101536.13;5051335;28;20108;-46
2022/10/31 04:51:04;;;;;;;6.78;3.05;;;;;;;19.37;59.21;101530.00;5051120;28;20497;-47
2022/10/31 04:53:30;;;;;;;3.97;3.17;;;;;;;19.35;59.22;101522.16;5060417;28;20477;-46
2022/10/31 04:55:58;;;;;;;3.22;2.88;;;;;;;19.36;59.37;101526.50;5049028;28;20044;-46
2022/10/31 04:58:24;;;;;;;4.43;2.60;;;;;;;19.37;59.13;101532.63;5046049;28;20045;-46
2022/10/31 05:00:54;;;;;;;4.22;2.83;;;;;;;19.36;59.22;101529.16;5050164;28;20037;-46
2022/10/31 05:03:20;;;;;;;4.28;3.08;;;;;;;19.37;59.24;101532.63;5047621;28;20062;-46
2022/10/31 05:05:46;;;;;;;5.63;2.90;;;;;;;19.36;59.36;101526.50;5050614;28;20043;-47
2022/10/31 05:08:12;;;;;;;4.35;3.00;;;;;;;19.36;59.28;101517.75;5047159;28;20064;-46
2022/10/31 05:10:37;;;;;;;5.55;3.25;;;;;;;19.36;59.31;101520.38;5049913;28;20045;-46
2022/10/31 05:13:04;;;;;;;3.35;2.67;;;;;;;19.35;59.25;101513.38;5045640;28;20056;-46
2022/10/31 05:15:30;;;;;;;3.72;2.65;;;;;;;19.34;59.39;101509.94;5050779;28;20040;-46
2022/10/31 05:17:56;;;;;;;3.80;2.63;;;;;;;19.35;58.98;101514.25;5049699;28;20047;-47
2022/10/31 05:20:27;;;;;;;5.25;2.97;;;;;;;19.35;59.17;101519.53;5045724;28;20717;-47
2022/10/31 05:22:54;;;;;;;4.78;2.83;;;;;;;19.35;59.44;101516.88;5047495;28;20060;-46
2022/10/31 05:25:22;;;;;;;4.32;3.00;;;;;;;19.36;59.18;101515.13;5047439;28;20043;-46
2022/10/31 05:27:50;;;;;;;4.20;3.47;;;;;;;19.35;59.15;101519.53;5046989;28;20045;-46
2022/10/31 05:30:22;;;;;;;4.35;3.30;;;;;;;19.36;59.19;101517.75;5046364;28;20052;-47
2022/10/31 05:32:49;;;;;;;5.13;2.85;;;;;;;19.35;59.11;101511.63;5050680;28;20056;-48
2022/10/31 05:35:17;;;;;;;4.28;3.15;;;;;;;19.35;59.21;101514.25;5050198;28;20497;-45
2022/10/31 05:37:43;;;;;;;4.18;2.78;;;;;;;19.35;59.12;101516.03;5052824;28;20069;-48
2022/10/31 05:40:10;;;;;;;5.35;3.10;;;;;;;19.35;59.16;101516.03;5052835;28;20048;-46
2022/10/31 05:42:38;;;;;;;5.10;3.25;;;;;;;19.34;58.97;101509.06;5048441;28;20047;-46
2022/10/31 05:45:04;;;;;;;4.57;3.00;;;;;;;19.33;59.10;101504.72;5048395;28;20040;-46
2022/10/31 05:47:30;;;;;;;3.92;3.25;;;;;;;19.34;59.08;101499.38;5049704;28;20040;-46
2022/10/31 05:49:55;;;;;;;5.40;3.40;;;;;;;19.34;59.22;101507.28;5051037;28;20060;-47
2022/10/31 05:52:20;;;;;;;6.22;3.13;;;;;;;19.34;59.06;101491.47;5052080;28;20091;-46
2022/10/31 05:54:46;;;;;;;5.72;2.90;;;;;;;19.33;59.24;101497.66;5050943;28;20115;-46
2022/10/31 05:57:11;;;;;;;4.25;2.92;;;;;;;19.33;59.06;101495.03;5050619;28;20047;-46
2022/10/31 05:59:36;;;;;;;3.83;2.85;;;;;;;19.34;58.90;101494.13;5048004;28;20039;-45
2022/10/31 06:02:02;;;;;;;4.82;2.80;;;;;;;19.34;59.07;101488.00;5052210;28;20639;-48
2022/10/31 06:04:27;;;;;;;4.32;3.20;;;;;;;19.34;59.03;101490.63;5053807;28;20057;-46
2022/10/31 06:06:53;;;;;;;5.20;2.78;;;;;;;19.33;59.16;101491.53;5049156;28;20033;-47
2022/10/31 06:09:18;;;;;;;5.93;2.90;;;;;;;19.33;58.94;101491.53;5051883;28;20052;-47
2022/10/31 06:11:44;;;;;;;4.35;2.70;;;;;;;19.32;59.11;101493.31;5049418;28;20565;-48
2022/10/31 06:14:09;;;;;;;4.85;3.22;;;;;;;19.33;59.08;101495.03;5051628;28;20442;-47
2022/10/31 06:16:34;;;;;;;4.03;2.90;;;;;;;19.33;58.99;101496.81;5049622;28;20029;-46
2022/10/31 06:19:00;;;;;;;4.60;3.03;;;;;;;19.33;58.86;101488.91;5053719;28;20071;-46
2022/10/31 06:21:25;;;;;;;4.55;2.72;;;;;;;19.33;59.17;101496.81;5051013;28;21414;-46
2022/10/31 06:23:50;;;;;;;4.68;2.88;;;;;;;19.35;59.00;101501.06;5051268;28;20110;-46
2022/10/31 06:26:16;;;;;;;4.25;2.53;;;;;;;19.39;58.85;101501.78;5050338;28;20087;-46
2022/10/31 06:28:41;;;;;;;4.70;2.88;;;;;;;19.44;58.56;101502.44;5049712;28;20044;-46
2022/10/31 06:31:07;;;;;;;3.72;2.97;;;;;;;19.46;58.54;101503.25;5049310;28;20033;-46
2022/10/31 06:33:34;;;;;;;3.35;2.80;;;;;;;19.50;58.38;101507.41;5052451;28;20036;-46
2022/10/31 06:36:00;;;;;;;3.53;2.78;;;;;;;19.53;58.22;101504.66;5050279;28;20212;-46
2022/10/31 06:38:28;;;;;;;5.70;2.92;;;;;;;19.57;58.18;101500.94;5047072;28;20134;-46
2022/10/31 06:40:54;;;;;;;3.75;2.65;;;;;;;19.58;58.11;101497.41;5044401;28;20032;-46
2022/10/31 06:43:21;;;;;;;4.68;2.53;;;;;;;19.59;58.34;101494.69;5046399;28;20072;-46
2022/10/31 06:45:47;;;;;;;3.25;2.45;;;;;;;19.61;58.18;101497.25;5055004;28;20048;-46
2022/10/31 06:48:12;;;;;;;3.70;2.38;;;;;;;19.60;58.37;101491.13;5045279;28;20029;-46
2022/10/31 06:50:38;;;;;;;3.88;2.80;;;;;;;19.63;58.24;101490.97;5046383;28;20068;-47
2022/10/31 06:53:04;;;;;;;4.03;2.85;;;;;;;19.62;57.97;101494.53;5052342;28;20048;-46
2022/10/31 06:55:29;;;;;;;4.10;2.70;;;;;;;19.61;58.22;101490.19;5047753;28;20128;-46
2022/10/31 06:57:58;;;;;;;3.13;2.65;;;;;;;19.61;58.19;101484.91;5046838;28;20044;-46
2022/10/31 07:00:25;;;;;;;3.75;2.83;;;;;;;19.60;58.19;101491.13;5054866;28;20052;-46
2022/10/31 07:02:53;;;;;;;4.53;3.25;;;;;;;19.59;58.07;101484.13;5052256;28;20052;-46
2022/10/31 07:05:18;;;;;;;3.42;2.92;;;;;;;19.59;58.15;101488.53;5046061;28;20111;-46
2022/10/31 07:07:44;;;;;;;3.60;2.72;;;;;;;19.59;58.24;101489.41;5051222;28;20037;-47
2022/10/31 07:10:09;;;;;;;4.90;2.88;;;;;;;19.58;58.24;101506.13;5054411;28;20492;-46
2022/10/31 07:12:34;;;;;;;3.83;2.70;;;;;;;19.58;58.29;101505.31;5052728;28;20036;-46
2022/10/31 07:15:00;;;;;;;4.63;2.88;;;;;;;19.57;58.19;101500.94;5046195;28;20068;-46
2022/10/31 07:17:25;;;;;;;3.72;2.78;;;;;;;19.55;58.12;101501.00;5044154;28;20046;-46
2022/10/31 07:19:50;;;;;;;5.70;2.42;;;;;;;19.55;58.26;101505.44;5052649;28;20127;-46
2022/10/31 07:22:16;;;;;;;4.00;2.63;;;;;;;19.57;58.33;101500.94;5002010;28;1373274;-46
2022/10/31 07:24:41;;;;;;;3.42;2.80;;;;;;;19.56;58.18;101496.59;5047869;28;20394;-46
2022/10/31 07:27:06;;;;;;;4.43;2.55;;;;;;;19.52;58.07;101503.78;5049558;28;20044;-48
2022/10/31 07:29:32;;;;;;;5.88;2.97;;;;;;;19.50;57.96;101510.06;5052693;28;20065;-45
2022/10/31 07:31:57;;;;;;;4.13;3.05;;;;;;;19.50;57.81;101505.66;5055234;28;20060;-46
2022/10/31 07:34:22;;;;;;;7.97;2.50;;;;;;;19.49;57.70;101500.47;5044761;28;20139;-45
2022/10/31 07:36:50;;;;;;;5.25;3.33;;;;;;;19.48;57.73;101501.38;5045687;28;20032;-45
2022/10/31 07:39:15;;;;;;;5.15;2.50;;;;;;;19.47;57.88;101507.56;5044361;28;20087;-45
2022/10/31 07:41:41;;;;;;;4.93;3.00;;;;;;;19.45;57.70;101509.41;5049245;28;20028;-45
2022/10/31 07:44:06;;;;;;;4.60;2.63;;;;;;;19.46;57.84;101509.34;5050459;28;20653;-46
2022/10/31 07:46:31;;;;;;;4.25;3.08;;;;;;;19.44;57.80;101503.28;5047552;28;20036;-46
2022/10/31 07:48:57;;;;;;;7.60;3.08;;;;;;;19.44;57.64;101513.84;5045377;28;20037;-45
2022/10/31 07:51:23;;;;;;;4.82;2.95;;;;;;;19.43;57.78;101520.00;5051328;28;20040;-45
2022/10/31 07:53:49;;;;;;;4.95;3.20;;;;;;;19.43;57.78;101522.66;5049513;28;20037;-45
2022/10/31 07:56:14;;;;;;;4.32;2.75;;;;;;;19.43;57.74;101530.56;5053807;28;20051;-47
2022/10/31 07:58:40;;;;;;;6.75;3.78;;;;;;;19.43;57.65;101533.19;5047171;28;20670;-46
2022/10/31 08:01:05;;;;;;;6.10;3.05;;;;;;;19.43;57.46;101529.72;5044651;28;20041;-45
2022/10/31 08:03:30;;;;;;;5.63;2.88;;;;;;;19.42;57.54;101530.63;5044334;28;20045;-45
2022/10/31 08:05:56;;;;;;;6.70;3.40;;;;;;;19.40;57.73;101528.06;5046971;28;20045;-46
2022/10/31 08:08:21;;;;;;;5.90;3.40;;;;;;;19.40;57.70;101524.59;5051475;28;20028;-46
2022/10/31 08:10:47;;;;;;;4.25;3.33;;;;;;;19.40;57.67;101519.31;5045882;28;20102;-48
2022/10/31 08:13:13;;;;;;;6.07;3.17;;;;;;;19.41;57.45;101523.66;5046746;28;20043;-46
2022/10/31 08:15:41;;;;;;;5.65;3.22;;;;;;;19.40;57.53;101514.88;5047719;28;20037;-46
2022/10/31 08:18:11;;;;;;;8.93;3.03;;;;;;;19.41;57.81;101521.88;5046642;28;20032;-45
2022/10/31 08:20:36;;;;;;;6.88;3.15;;;;;;;19.39;57.43;101523.72;5047714;28;20132;-45
2022/10/31 08:23:04;;;;;;;5.32;3.33;;;;;;;19.38;57.56;101522.00;5049327;28;20037;-46
2022/10/31 08:25:31;;;;;;;5.78;3.13;;;;;;;19.38;57.48;101516.75;5048237;28;20059;-47
2022/10/31 08:27:57;;;;;;;5.75;3.38;;;;;;;19.41;57.94;101519.25;5050047;28;20156;-53
2022/10/31 08:30:28;;;;;;;9.18;3.75;;;;;;;19.42;58.00;101514.84;5049737;28;20044;-51
2022/10/31 08:33:01;;;;;;;5.05;3.13;;;;;;;19.45;58.03;101514.69;5045437;28;20040;-54
2022/10/31 08:35:27;;;;;;;11.13;3.80;;;;;;;19.43;58.08;101508.66;5046479;28;20037;-49
2022/10/31 08:37:55;;;;;;;8.40;3.30;;;;;;;19.44;57.67;101505.06;5046683;28;20025;-49
2022/10/31 08:40:20;;;;;;;7.00;3.85;;;;;;;19.42;57.81;101499.03;5041544;28;20235;-51
2022/10/31 08:42:45;;;;;;;8.02;3.60;;;;;;;19.42;57.85;101496.38;5046513;28;20509;-53
2022/10/31 08:45:11;;;;;;;9.57;3.70;;;;;;;19.43;57.32;101498.09;5046704;28;20106;-46
2022/10/31 08:47:36;;;;;;;7.25;3.70;;;;;;;19.40;57.45;101492.97;5045238;28;20039;-45
2022/10/31 08:50:02;;;;;;;4.93;3.05;;;;;;;19.38;57.09;101492.16;5051926;28;20142;-45
2022/10/31 08:52:27;;;;;;;7.78;3.75;;;;;;;19.39;57.23;101491.25;5045491;28;20199;-46
2022/10/31 08:54:53;;;;;;;13.00;3.42;;;;;;;19.41;57.34;101482.34;5043980;28;20529;-47
2022/10/31 08:57:18;;;;;;;7.88;3.90;;;;;;;19.38;57.54;101486.91;5044798;28;20652;-49
2022/10/31 08:59:43;;;;;;;10.75;4.05;;;;;;;19.38;57.22;101487.75;5048336;28;20139;-51
2022/10/31 09:02:09;;;;;;;5.82;3.38;;;;;;;19.37;57.25;101493.13;5050122;28;20032;-48
2022/10/31 09:04:34;;;;;;;8.85;3.50;;;;;;;19.37;57.36;101491.34;5049932;28;20059;-47
2022/10/31 09:06:59;;;;;;;9.95;4.13;;;;;;;19.39;57.41;101486.84;5048492;28;20037;-50
2022/10/31 09:09:25;;;;;;;12.18;4.03;;;;;;;19.37;57.10;101485.22;5048735;28;20198;-53
2022/10/31 09:11:50;;;;;;;8.40;3.63;;;;;;;19.36;57.28;101487.00;5041162;28;20056;-56
2022/10/31 09:14:15;;;;;;;6.55;3.40;;;;;;;19.36;57.13;101479.09;5047515;28;20610;-53
2022/10/31 09:16:41;;;;;;;6.07;3.40;;;;;;;19.36;57.12;101479.09;5051137;28;20189;-52
2022/10/31 09:19:06;;;;;;;6.97;3.67;;;;;;;19.36;57.16;101476.44;5044249;28;20068;-53
2022/10/31 09:21:31;;;;;;;6.35;4.00;;;;;;;19.38;57.01;101479.00;5047882;28;20045;-50
2022/10/31 09:23:57;;;;;;;13.13;4.43;;;;;;;19.39;57.19;101478.09;5046711;28;20059;-50
2022/10/31 09:26:22;;;;;;;7.15;3.80;;;;;;;19.40;57.10;101477.16;5047042;28;20024;-54
2022/10/31 09:28:48;;;;;;;6.60;3.80;;;;;;;19.40;57.14;101470.09;5049000;28;20037;-55
2022/10/31 09:31:13;;;;;;;8.20;3.80;;;;;;;19.41;57.24;101463.06;5046176;28;20045;-55
2022/10/31 09:33:38;;;;;;;7.05;3.75;;;;;;;19.44;57.28;101468.19;5046152;28;20820;-54
2022/10/31 09:36:04;;;;;;;8.93;3.38;;;;;;;19.46;57.42;101472.44;5045163;28;20075;-54
2022/10/31 09:38:29;;;;;;;8.45;4.20;;;;;;;19.49;57.56;101463.56;5040359;28;20152;-49
2022/10/31 09:41:07;;;;;;;6.70;3.63;;;;;;;19.51;57.59;101459.06;5046726;28;20033;-51
2022/10/31 09:43:47;;;;;;;7.25;4.20;;;;;;;19.49;57.54;101458.31;5045463;28;20044;-49
2022/10/31 09:46:21;;;;;;;6.57;3.80;;;;;;;19.55;57.49;101450.94;5045740;28;20123;-54
2022/10/31 09:49:24;;;;;;;9.60;3.85;;;;;;;19.58;57.06;101445.50;5043649;28;20039;-53
2022/10/31 09:51:57;;;;;;;10.13;4.40;;;;;;;19.51;56.71;101441.47;5044951;28;20047;-54
2022/10/31 09:54:44;;;;;;;9.32;4.10;;;;;;;19.47;56.37;101432.00;5046280;28;20738;-53
2022/10/31 09:57:16;;;;;;;8.52;4.15;;;;;;;19.50;56.30;101436.28;5048978;28;20040;-54
2022/10/31 09:59:44;;;;;;;9.00;3.90;;;;;;;19.46;56.53;101429.47;5045079;28;20512;-54
2022/10/31 10:02:25;;;;;;;9.18;3.80;;;;;;;19.45;56.73;101422.47;5047277;28;20123;-53
2022/10/31 10:05:00;;;;;;;5.28;3.78;;;;;;;19.46;57.00;101426.81;5041718;28;20091;-53
2022/10/31 10:07:32;;;;;;;8.38;3.88;;;;;;;19.48;56.89;101428.44;5047720;28;20045;-54
2022/10/31 10:10:00;;;;;;;8.40;3.88;;;;;;;19.50;57.37;101418.69;5050849;28;20073;-49
2022/10/31 10:12:26;;;;;;;7.53;4.25;;;;;;;19.52;56.76;101413.34;5049211;28;20033;-49
2022/10/31 10:15:24;;;;;;;6.63;3.92;;;;;;;19.50;56.79;101412.56;5047387;28;20045;-49
2022/10/31 10:18:14;;;;;;;8.98;3.58;;;;;;;19.50;56.93;101416.03;5046269;28;20033;-49
2022/10/31 10:21:01;;;;;;;11.57;4.88;;;;;;;19.52;56.91;101403.63;5048001;28;20095;-50
2022/10/31 10:23:52;;;;;;;10.88;3.85;;;;;;;19.52;57.03;101402.81;5050670;28;20121;-49
2022/10/31 10:26:20;;;;;;;9.35;4.00;;;;;;;19.53;56.81;101401.88;5047968;28;20060;-49
2022/10/31 10:28:51;;;;;;;9.52;3.83;;;;;;;19.53;57.00;101404.50;5044233;28;20052;-48
2022/10/31 10:31:22;;;;;;;6.40;4.00;;;;;;;19.49;56.79;101400.31;5046465;28;20032;-49
2022/10/31 10:34:01;;;;;;;7.57;4.53;;;;;;;19.45;56.76;101390.84;5049180;28;20061;-48
2022/10/31 10:36:38;;;;;;;8.93;4.50;;;;;;;19.44;56.34;101375.94;5047596;28;20208;-49
2022/10/31 10:39:30;;;;;;;9.38;3.75;;;;;;;19.42;55.95;101378.69;5050320;28;20102;-50
2022/10/31 10:47:43;;;;;;;16.47;5.47;;;;;;;19.38;56.08;101368.34;5053247;28;20109;-47
2022/10/31 10:50:15;;;;;;;17.17;6.10;;;;;;;19.39;56.22;101368.28;5051069;28;20064;-48
2022/10/31 10:53:06;;;;;;;17.85;5.63;;;;;;;19.38;56.45;101363.06;5049861;28;20049;-48
2022/10/31 10:55:44;;;;;;;16.98;5.63;;;;;;;19.39;56.36;101372.69;5054430;28;20041;-49
2022/10/31 10:58:10;;;;;;;16.00;4.82;;;;;;;19.41;56.17;101361.16;5042624;28;20187;-48
2022/10/31 11:00:41;;;;;;;13.88;5.55;;;;;;;19.43;56.12;101369.00;5049896;28;21950;-49
2022/10/31 11:03:07;;;;;;;20.30;5.47;;;;;;;19.42;56.35;101362.00;5043567;28;20120;-51
2022/10/31 11:05:44;;;;;;;20.00;5.97;;;;;;;19.42;56.53;101360.22;5049186;28;20331;-48
2022/10/31 11:08:11;;;;;;;17.45;5.70;;;;;;;19.43;56.38;101351.38;5046938;28;20039;-49
2022/10/31 11:10:37;;;;;;;19.63;6.07;;;;;;;19.37;56.62;101345.56;5050153;28;20048;-48
2022/10/31 11:13:15;;;;;;;10.38;5.38;;;;;;;19.33;56.07;101339.59;5048444;28;20033;-49
2022/10/31 11:16:04;;;;;;;18.33;5.97;;;;;;;19.31;56.05;101337.97;5051511;28;20051;-49
2022/10/31 11:18:36;;;;;;;14.30;6.00;;;;;;;19.31;56.16;101333.56;5051735;28;20036;-49
2022/10/31 11:21:04;;;;;;;19.23;6.15;;;;;;;19.36;55.89;101342.09;5054786;28;20064;-48
2022/10/31 11:23:30;;;;;;;12.13;5.38;;;;;;;19.35;56.15;101334.25;5045901;28;20037;-48
2022/10/31 11:26:01;;;;;;;30.55;9.65;;;;;;;19.30;56.22;101325.72;5050491;28;20093;-49
2022/10/31 11:28:29;;;;;;;25.92;9.05;;;;;;;19.31;56.24;101330.94;5045423;28;20040;-49
2022/10/31 11:31:00;;;;;;;31.38;11.65;;;;;;;19.30;56.04;101326.56;5050748;28;20048;-49
2022/10/31 11:33:28;;;;;;;35.15;13.75;;;;;;;19.29;56.16;101316.09;5049700;28;20501;-48
2022/10/31 11:35:54;;;;;;;37.67;13.05;;;;;;;19.27;56.09;101310.88;5050459;28;20048;-48
2022/10/31 11:38:23;;;;;;;23.75;9.35;;;;;;;19.36;56.18;101309.63;5051455;28;20055;-54